sensor_id;sensor_type;location;lat;lon;timestamp;temperature;humidity
38183;DHT22;23991;52.430;10.586;2023-05-07T00:01:12;11.80;73.00
38183;DHT22;23991;52.430;10.586;2023-05-07T00:03:38;11.80;73.10
38183;DHT22;23991;52.430;10.586;2023-05-07T00:06:04;11.80;73.00
38183;DHT22;23991;52.430;10.586;2023-05-07T00:08:30;11.80;73.00
38183;DHT22;23991;52.430;10.586;2023-05-07T00:10:56;11.80;72.80
38183;DHT22;23991;52.430;10.586;2023-05-07T00:13:21;11.80;72.80
38183;DHT22;23991;52.430;10.586;2023-05-07T00:15:47;11.70;73.00
38183;DHT22;23991;52.430;10.586;2023-05-07T00:18:12;11.70;73.20
38183;DHT22;23991;52.430;10.586;2023-05-07T00:20:38;11.60;73.50
38183;DHT22;23991;52.430;10.586;2023-05-07T00:23:03;11.70;73.50
38183;DHT22;23991;52.430;10.586;2023-05-07T00:25:29;11.60;73.70
38183;DHT22;23991;52.430;10.586;2023-05-07T00:27:54;11.60;73.70
38183;DHT22;23991;52.430;10.586;2023-05-07T00:30:20;11.60;73.70
38183;DHT22;23991;52.430;10.586;2023-05-07T00:32:45;11.60;73.90
38183;DHT22;23991;52.430;10.586;2023-05-07T00:35:11;11.50;74.10
38183;DHT22;23991;52.430;10.586;2023-05-07T00:37:36;11.50;74.30
38183;DHT22;23991;52.430;10.586;2023-05-07T00:40:02;11.50;74.20
38183;DHT22;23991;52.430;10.586;2023-05-07T00:42:30;11.40;74.30
38183;DHT22;23991;52.430;10.586;2023-05-07T00:44:57;11.40;74.50
38183;DHT22;23991;52.430;10.586;2023-05-07T00:47:23;11.40;74.40
38183;DHT22;23991;52.430;10.586;2023-05-07T00:49:49;11.40;74.40
38183;DHT22;23991;52.430;10.586;2023-05-07T00:52:16;11.40;74.20
38183;DHT22;23991;52.430;10.586;2023-05-07T00:54:42;11.40;74.10
38183;DHT22;23991;52.430;10.586;2023-05-07T00:57:09;11.30;74.20
38183;DHT22;23991;52.430;10.586;2023-05-07T00:59:36;11.30;74.20
38183;DHT22;23991;52.430;10.586;2023-05-07T01:02:02;11.30;74.20
38183;DHT22;23991;52.430;10.586;2023-05-07T01:04:28;11.30;74.10
38183;DHT22;23991;52.430;10.586;2023-05-07T01:06:58;11.20;74.20
38183;DHT22;23991;52.430;10.586;2023-05-07T01:09:25;11.30;74.40
38183;DHT22;23991;52.430;10.586;2023-05-07T01:11:52;11.30;74.20
38183;DHT22;23991;52.430;10.586;2023-05-07T01:14:18;11.40;74.00
38183;DHT22;23991;52.430;10.586;2023-05-07T01:16:44;11.30;74.00
38183;DHT22;23991;52.430;10.586;2023-05-07T01:19:11;11.30;74.20
38183;DHT22;23991;52.430;10.586;2023-05-07T01:21:43;11.30;74.40
38183;DHT22;23991;52.430;10.586;2023-05-07T01:24:10;11.30;74.50
38183;DHT22;23991;52.430;10.586;2023-05-07T01:26:37;11.30;74.50
38183;DHT22;23991;52.430;10.586;2023-05-07T01:29:03;11.30;74.60
38183;DHT22;23991;52.430;10.586;2023-05-07T01:31:28;11.30;74.70
38183;DHT22;23991;52.430;10.586;2023-05-07T01:33:57;11.20;74.80
38183;DHT22;23991;52.430;10.586;2023-05-07T01:36:25;11.30;75.00
38183;DHT22;23991;52.430;10.586;2023-05-07T01:38:52;11.20;74.90
38183;DHT22;23991;52.430;10.586;2023-05-07T01:41:21;11.20;75.20
38183;DHT22;23991;52.430;10.586;2023-05-07T01:43:48;11.20;75.50
38183;DHT22;23991;52.430;10.586;2023-05-07T01:46:15;11.10;75.40
38183;DHT22;23991;52.430;10.586;2023-05-07T01:48:41;11.20;75.30
38183;DHT22;23991;52.430;10.586;2023-05-07T01:51:08;11.10;75.70
38183;DHT22;23991;52.430;10.586;2023-05-07T01:53:37;11.10;75.60
38183;DHT22;23991;52.430;10.586;2023-05-07T01:56:03;11.10;75.60
38183;DHT22;23991;52.430;10.586;2023-05-07T01:58:29;11.10;75.70
38183;DHT22;23991;52.430;10.586;2023-05-07T02:00:54;11.20;75.60
38183;DHT22;23991;52.430;10.586;2023-05-07T02:03:20;11.10;75.70
38183;DHT22;23991;52.430;10.586;2023-05-07T02:05:46;11.10;75.80
38183;DHT22;23991;52.430;10.586;2023-05-07T02:08:11;11.10;75.90
38183;DHT22;23991;52.430;10.586;2023-05-07T02:10:37;11.10;75.90
38183;DHT22;23991;52.430;10.586;2023-05-07T02:13:02;11.10;75.80
38183;DHT22;23991;52.430;10.586;2023-05-07T02:15:28;11.10;75.80
38183;DHT22;23991;52.430;10.586;2023-05-07T02:18:05;11.10;75.90
38183;DHT22;23991;52.430;10.586;2023-05-07T02:20:31;11.10;75.80
38183;DHT22;23991;52.430;10.586;2023-05-07T02:22:57;11.10;75.60
38183;DHT22;23991;52.430;10.586;2023-05-07T02:25:22;11.00;75.90
38183;DHT22;23991;52.430;10.586;2023-05-07T02:27:48;11.00;75.90
38183;DHT22;23991;52.430;10.586;2023-05-07T02:30:14;11.00;75.90
38183;DHT22;23991;52.430;10.586;2023-05-07T02:32:40;11.00;76.00
38183;DHT22;23991;52.430;10.586;2023-05-07T02:35:05;11.00;76.10
38183;DHT22;23991;52.430;10.586;2023-05-07T02:37:31;10.90;76.20
38183;DHT22;23991;52.430;10.586;2023-05-07T02:39:57;10.90;76.20
38183;DHT22;23991;52.430;10.586;2023-05-07T02:42:22;10.90;76.20
38183;DHT22;23991;52.430;10.586;2023-05-07T02:44:48;10.90;76.20
38183;DHT22;23991;52.430;10.586;2023-05-07T02:47:17;10.90;76.20
38183;DHT22;23991;52.430;10.586;2023-05-07T02:49:43;10.90;76.30
38183;DHT22;23991;52.430;10.586;2023-05-07T02:52:08;10.90;76.20
38183;DHT22;23991;52.430;10.586;2023-05-07T02:54:34;10.80;76.00
38183;DHT22;23991;52.430;10.586;2023-05-07T02:56:59;10.80;76.00
38183;DHT22;23991;52.430;10.586;2023-05-07T02:59:26;10.80;75.90
38183;DHT22;23991;52.430;10.586;2023-05-07T03:01:51;10.80;76.00
38183;DHT22;23991;52.430;10.586;2023-05-07T03:04:17;10.80;76.10
38183;DHT22;23991;52.430;10.586;2023-05-07T03:06:42;10.80;76.00
38183;DHT22;23991;52.430;10.586;2023-05-07T03:09:08;10.70;76.00
38183;DHT22;23991;52.430;10.586;2023-05-07T03:11:34;10.70;75.90
38183;DHT22;23991;52.430;10.586;2023-05-07T03:14:01;10.60;76.30
38183;DHT22;23991;52.430;10.586;2023-05-07T03:16:26;10.50;76.50
38183;DHT22;23991;52.430;10.586;2023-05-07T03:18:52;10.50;76.50
38183;DHT22;23991;52.430;10.586;2023-05-07T03:21:17;10.50;76.60
38183;DHT22;23991;52.430;10.586;2023-05-07T03:23:46;10.60;76.60
38183;DHT22;23991;52.430;10.586;2023-05-07T03:26:11;10.60;76.60
38183;DHT22;23991;52.430;10.586;2023-05-07T03:28:37;10.60;76.50
38183;DHT22;23991;52.430;10.586;2023-05-07T03:31:03;10.60;76.30
38183;DHT22;23991;52.430;10.586;2023-05-07T03:33:28;10.60;76.20
38183;DHT22;23991;52.430;10.586;2023-05-07T03:35:54;10.50;76.40
38183;DHT22;23991;52.430;10.586;2023-05-07T03:38:19;10.60;76.40
38183;DHT22;23991;52.430;10.586;2023-05-07T03:40:45;10.60;76.40
38183;DHT22;23991;52.430;10.586;2023-05-07T03:43:10;10.60;76.50
38183;DHT22;23991;52.430;10.586;2023-05-07T03:45:36;10.60;76.30
38183;DHT22;23991;52.430;10.586;2023-05-07T03:48:01;10.60;76.30
38183;DHT22;23991;52.430;10.586;2023-05-07T03:50:27;10.60;76.50
38183;DHT22;23991;52.430;10.586;2023-05-07T03:52:52;10.60;76.40
38183;DHT22;23991;52.430;10.586;2023-05-07T03:55:18;10.60;76.30
38183;DHT22;23991;52.430;10.586;2023-05-07T03:57:43;10.60;76.00
38183;DHT22;23991;52.430;10.586;2023-05-07T04:00:09;10.60;76.00
38183;DHT22;23991;52.430;10.586;2023-05-07T04:02:35;10.60;75.80
38183;DHT22;23991;52.430;10.586;2023-05-07T04:05:01;10.50;75.60
38183;DHT22;23991;52.430;10.586;2023-05-07T04:07:26;10.50;75.60
38183;DHT22;23991;52.430;10.586;2023-05-07T04:09:51;10.50;75.70
38183;DHT22;23991;52.430;10.586;2023-05-07T04:12:17;10.50;75.70
38183;DHT22;23991;52.430;10.586;2023-05-07T04:14:42;10.50;75.30
38183;DHT22;23991;52.430;10.586;2023-05-07T04:17:08;10.60;74.80
38183;DHT22;23991;52.430;10.586;2023-05-07T04:19:35;10.60;74.60
38183;DHT22;23991;52.430;10.586;2023-05-07T04:22:00;10.70;74.40
38183;DHT22;23991;52.430;10.586;2023-05-07T04:24:26;10.70;74.10
38183;DHT22;23991;52.430;10.586;2023-05-07T04:26:52;10.80;74.00
38183;DHT22;23991;52.430;10.586;2023-05-07T04:29:18;10.80;73.40
38183;DHT22;23991;52.430;10.586;2023-05-07T04:31:43;10.80;73.40
38183;DHT22;23991;52.430;10.586;2023-05-07T04:34:10;10.90;73.30
38183;DHT22;23991;52.430;10.586;2023-05-07T04:36:37;10.90;73.10
38183;DHT22;23991;52.430;10.586;2023-05-07T04:39:03;11.00;73.00
38183;DHT22;23991;52.430;10.586;2023-05-07T04:41:29;11.00;72.90
38183;DHT22;23991;52.430;10.586;2023-05-07T04:43:58;11.10;72.50
38183;DHT22;23991;52.430;10.586;2023-05-07T04:46:24;11.10;72.20
38183;DHT22;23991;52.430;10.586;2023-05-07T04:48:50;11.20;72.00
38183;DHT22;23991;52.430;10.586;2023-05-07T04:51:15;11.20;72.00
38183;DHT22;23991;52.430;10.586;2023-05-07T04:53:41;11.20;71.90
38183;DHT22;23991;52.430;10.586;2023-05-07T04:56:08;11.20;71.90
38183;DHT22;23991;52.430;10.586;2023-05-07T04:58:33;11.30;71.90
38183;DHT22;23991;52.430;10.586;2023-05-07T05:00:59;11.30;72.10
38183;DHT22;23991;52.430;10.586;2023-05-07T05:03:25;11.40;71.80
38183;DHT22;23991;52.430;10.586;2023-05-07T05:05:51;11.50;71.50
38183;DHT22;23991;52.430;10.586;2023-05-07T05:08:18;11.60;71.00
38183;DHT22;23991;52.430;10.586;2023-05-07T05:10:43;11.50;70.80
38183;DHT22;23991;52.430;10.586;2023-05-07T05:13:09;11.40;70.40
38183;DHT22;23991;52.430;10.586;2023-05-07T05:15:35;11.50;70.70
38183;DHT22;23991;52.430;10.586;2023-05-07T05:18:01;11.60;70.50
38183;DHT22;23991;52.430;10.586;2023-05-07T05:20:26;11.60;70.30
38183;DHT22;23991;52.430;10.586;2023-05-07T05:22:52;11.80;69.70
38183;DHT22;23991;52.430;10.586;2023-05-07T05:25:17;11.90;69.10
38183;DHT22;23991;52.430;10.586;2023-05-07T05:27:43;12.00;68.50
38183;DHT22;23991;52.430;10.586;2023-05-07T05:30:09;12.10;68.80
38183;DHT22;23991;52.430;10.586;2023-05-07T05:32:34;12.20;68.50
38183;DHT22;23991;52.430;10.586;2023-05-07T05:35:00;12.30;68.30
38183;DHT22;23991;52.430;10.586;2023-05-07T05:37:26;12.30;67.80
38183;DHT22;23991;52.430;10.586;2023-05-07T05:39:52;12.40;67.50
38183;DHT22;23991;52.430;10.586;2023-05-07T05:42:18;12.40;67.10
38183;DHT22;23991;52.430;10.586;2023-05-07T05:44:43;12.30;67.60
38183;DHT22;23991;52.430;10.586;2023-05-07T05:47:09;12.30;67.40
38183;DHT22;23991;52.430;10.586;2023-05-07T05:49:34;12.40;67.60
38183;DHT22;23991;52.430;10.586;2023-05-07T05:52:00;12.40;67.40
38183;DHT22;23991;52.430;10.586;2023-05-07T05:54:25;12.60;67.30
38183;DHT22;23991;52.430;10.586;2023-05-07T05:56:51;12.70;66.70
38183;DHT22;23991;52.430;10.586;2023-05-07T05:59:16;12.60;66.60
38183;DHT22;23991;52.430;10.586;2023-05-07T06:01:42;12.60;66.70
38183;DHT22;23991;52.430;10.586;2023-05-07T06:04:08;12.70;66.50
38183;DHT22;23991;52.430;10.586;2023-05-07T06:06:33;12.60;66.80
38183;DHT22;23991;52.430;10.586;2023-05-07T06:08:58;12.70;66.70
38183;DHT22;23991;52.430;10.586;2023-05-07T06:11:24;12.80;66.60
38183;DHT22;23991;52.430;10.586;2023-05-07T06:13:50;12.90;66.10
38183;DHT22;23991;52.430;10.586;2023-05-07T06:16:16;12.90;66.10
38183;DHT22;23991;52.430;10.586;2023-05-07T06:18:41;13.00;66.00
38183;DHT22;23991;52.430;10.586;2023-05-07T06:21:07;13.00;65.40
38183;DHT22;23991;52.430;10.586;2023-05-07T06:23:32;13.10;65.50
38183;DHT22;23991;52.430;10.586;2023-05-07T06:25:58;12.90;65.50
38183;DHT22;23991;52.430;10.586;2023-05-07T06:28:23;12.90;66.10
38183;DHT22;23991;52.430;10.586;2023-05-07T06:30:49;13.10;65.40
38183;DHT22;23991;52.430;10.586;2023-05-07T06:33:15;13.10;65.20
38183;DHT22;23991;52.430;10.586;2023-05-07T06:35:41;12.90;65.40
38183;DHT22;23991;52.430;10.586;2023-05-07T06:38:06;13.00;66.00
38183;DHT22;23991;52.430;10.586;2023-05-07T06:40:32;13.30;65.30
38183;DHT22;23991;52.430;10.586;2023-05-07T06:42:57;13.40;64.60
38183;DHT22;23991;52.430;10.586;2023-05-07T06:45:23;13.50;64.30
38183;DHT22;23991;52.430;10.586;2023-05-07T06:47:50;13.70;63.90
38183;DHT22;23991;52.430;10.586;2023-05-07T06:50:16;13.70;63.00
38183;DHT22;23991;52.430;10.586;2023-05-07T06:52:42;13.70;63.20
38183;DHT22;23991;52.430;10.586;2023-05-07T06:55:08;13.60;63.00
38183;DHT22;23991;52.430;10.586;2023-05-07T06:57:34;13.50;63.50
38183;DHT22;23991;52.430;10.586;2023-05-07T06:59:59;13.40;64.10
38183;DHT22;23991;52.430;10.586;2023-05-07T07:02:25;13.40;64.00
38183;DHT22;23991;52.430;10.586;2023-05-07T07:04:51;13.50;63.90
38183;DHT22;23991;52.430;10.586;2023-05-07T07:07:16;13.70;63.50
38183;DHT22;23991;52.430;10.586;2023-05-07T07:09:42;13.80;63.60
38183;DHT22;23991;52.430;10.586;2023-05-07T07:12:07;13.90;62.70
38183;DHT22;23991;52.430;10.586;2023-05-07T07:14:33;14.00;62.40
38183;DHT22;23991;52.430;10.586;2023-05-07T07:16:58;14.20;61.90
38183;DHT22;23991;52.430;10.586;2023-05-07T07:19:25;14.30;61.50
38183;DHT22;23991;52.430;10.586;2023-05-07T07:21:51;14.50;60.60
38183;DHT22;23991;52.430;10.586;2023-05-07T07:24:17;14.50;60.70
38183;DHT22;23991;52.430;10.586;2023-05-07T07:26:46;14.50;61.00
38183;DHT22;23991;52.430;10.586;2023-05-07T07:29:11;14.40;60.70
38183;DHT22;23991;52.430;10.586;2023-05-07T07:31:37;14.40;61.00
38183;DHT22;23991;52.430;10.586;2023-05-07T07:34:03;14.40;61.10
38183;DHT22;23991;52.430;10.586;2023-05-07T07:36:28;14.60;60.90
38183;DHT22;23991;52.430;10.586;2023-05-07T07:38:54;14.80;60.30
38183;DHT22;23991;52.430;10.586;2023-05-07T07:41:19;14.70;60.20
38183;DHT22;23991;52.430;10.586;2023-05-07T07:43:45;14.50;60.30
38183;DHT22;23991;52.430;10.586;2023-05-07T07:46:12;14.40;60.70
38183;DHT22;23991;52.430;10.586;2023-05-07T07:48:37;14.40;60.60
38183;DHT22;23991;52.430;10.586;2023-05-07T07:51:03;14.60;59.70
38183;DHT22;23991;52.430;10.586;2023-05-07T07:53:29;14.60;59.00
38183;DHT22;23991;52.430;10.586;2023-05-07T07:55:54;14.80;59.10
38183;DHT22;23991;52.430;10.586;2023-05-07T07:58:20;14.80;58.90
38183;DHT22;23991;52.430;10.586;2023-05-07T08:00:47;14.80;58.80
38183;DHT22;23991;52.430;10.586;2023-05-07T08:03:13;14.90;58.50
38183;DHT22;23991;52.430;10.586;2023-05-07T08:05:39;15.10;58.00
38183;DHT22;23991;52.430;10.586;2023-05-07T08:08:05;15.30;57.40
38183;DHT22;23991;52.430;10.586;2023-05-07T08:10:31;15.30;57.00
38183;DHT22;23991;52.430;10.586;2023-05-07T08:13:00;15.40;56.90
38183;DHT22;23991;52.430;10.586;2023-05-07T08:15:26;15.50;56.00
38183;DHT22;23991;52.430;10.586;2023-05-07T08:17:51;15.60;56.20
38183;DHT22;23991;52.430;10.586;2023-05-07T08:20:17;15.60;56.10
38183;DHT22;23991;52.430;10.586;2023-05-07T08:22:42;15.70;56.30
38183;DHT22;23991;52.430;10.586;2023-05-07T08:25:08;15.70;55.80
38183;DHT22;23991;52.430;10.586;2023-05-07T08:27:34;15.70;55.70
38183;DHT22;23991;52.430;10.586;2023-05-07T08:29:59;15.60;55.80
38183;DHT22;23991;52.430;10.586;2023-05-07T08:32:25;15.70;55.50
38183;DHT22;23991;52.430;10.586;2023-05-07T08:34:50;15.90;55.10
38183;DHT22;23991;52.430;10.586;2023-05-07T08:37:16;16.10;55.10
38183;DHT22;23991;52.430;10.586;2023-05-07T08:39:41;16.10;55.00
38183;DHT22;23991;52.430;10.586;2023-05-07T08:42:09;16.20;54.50
38183;DHT22;23991;52.430;10.586;2023-05-07T08:44:38;16.30;54.30
38183;DHT22;23991;52.430;10.586;2023-05-07T08:47:06;16.60;54.00
38183;DHT22;23991;52.430;10.586;2023-05-07T08:49:33;16.60;53.50
38183;DHT22;23991;52.430;10.586;2023-05-07T08:51:59;16.70;53.30
38183;DHT22;23991;52.430;10.586;2023-05-07T08:54:25;16.90;52.50
38183;DHT22;23991;52.430;10.586;2023-05-07T08:56:51;16.80;52.70
38183;DHT22;23991;52.430;10.586;2023-05-07T08:59:16;16.80;52.70
38183;DHT22;23991;52.430;10.586;2023-05-07T09:01:42;17.00;52.30
38183;DHT22;23991;52.430;10.586;2023-05-07T09:04:07;17.10;51.80
38183;DHT22;23991;52.430;10.586;2023-05-07T09:06:34;17.20;51.60
38183;DHT22;23991;52.430;10.586;2023-05-07T09:09:00;17.40;50.90
38183;DHT22;23991;52.430;10.586;2023-05-07T09:11:27;17.40;51.00
38183;DHT22;23991;52.430;10.586;2023-05-07T09:13:54;17.60;50.80
38183;DHT22;23991;52.430;10.586;2023-05-07T09:16:21;17.80;50.30
38183;DHT22;23991;52.430;10.586;2023-05-07T09:18:48;17.80;50.30
38183;DHT22;23991;52.430;10.586;2023-05-07T09:21:16;18.00;50.20
38183;DHT22;23991;52.430;10.586;2023-05-07T09:23:42;18.00;50.10
38183;DHT22;23991;52.430;10.586;2023-05-07T09:26:08;17.80;49.80
38183;DHT22;23991;52.430;10.586;2023-05-07T09:28:40;17.90;49.80
38183;DHT22;23991;52.430;10.586;2023-05-07T09:31:07;17.80;49.20
38183;DHT22;23991;52.430;10.586;2023-05-07T09:33:32;17.80;50.00
38183;DHT22;23991;52.430;10.586;2023-05-07T09:35:58;17.80;49.70
38183;DHT22;23991;52.430;10.586;2023-05-07T09:38:24;17.80;50.40
38183;DHT22;23991;52.430;10.586;2023-05-07T09:41:06;17.90;50.00
38183;DHT22;23991;52.430;10.586;2023-05-07T09:43:33;18.10;49.10
38183;DHT22;23991;52.430;10.586;2023-05-07T09:46:03;18.20;49.00
38183;DHT22;23991;52.430;10.586;2023-05-07T09:48:32;18.40;48.60
38183;DHT22;23991;52.430;10.586;2023-05-07T09:51:02;18.50;48.50
38183;DHT22;23991;52.430;10.586;2023-05-07T09:53:33;18.50;48.00
38183;DHT22;23991;52.430;10.586;2023-05-07T09:55:59;18.70;47.90
38183;DHT22;23991;52.430;10.586;2023-05-07T09:58:26;18.70;48.00
38183;DHT22;23991;52.430;10.586;2023-05-07T10:00:52;18.70;48.40
38183;DHT22;23991;52.430;10.586;2023-05-07T10:03:19;18.80;47.40
38183;DHT22;23991;52.430;10.586;2023-05-07T10:05:46;18.90;47.30
38183;DHT22;23991;52.430;10.586;2023-05-07T10:08:12;18.80;48.00
38183;DHT22;23991;52.430;10.586;2023-05-07T10:10:38;19.00;47.20
38183;DHT22;23991;52.430;10.586;2023-05-07T10:13:05;19.00;47.10
38183;DHT22;23991;52.430;10.586;2023-05-07T10:15:35;18.80;47.90
38183;DHT22;23991;52.430;10.586;2023-05-07T10:18:01;19.00;47.50
38183;DHT22;23991;52.430;10.586;2023-05-07T10:20:27;18.80;47.40
38183;DHT22;23991;52.430;10.586;2023-05-07T10:22:55;18.60;47.70
38183;DHT22;23991;52.430;10.586;2023-05-07T10:25:25;18.60;48.00
38183;DHT22;23991;52.430;10.586;2023-05-07T10:27:52;18.80;47.30
38183;DHT22;23991;52.430;10.586;2023-05-07T10:32:49;19.10;46.80
38183;DHT22;23991;52.430;10.586;2023-05-07T10:35:26;19.00;46.90
38183;DHT22;23991;52.430;10.586;2023-05-07T10:37:52;19.00;46.80
38183;DHT22;23991;52.430;10.586;2023-05-07T10:40:19;18.90;46.60
38183;DHT22;23991;52.430;10.586;2023-05-07T10:43:02;18.60;47.80
38183;DHT22;23991;52.430;10.586;2023-05-07T10:45:31;18.70;47.10
38183;DHT22;23991;52.430;10.586;2023-05-07T10:48:16;18.80;46.80
38183;DHT22;23991;52.430;10.586;2023-05-07T10:50:44;19.00;47.10
38183;DHT22;23991;52.430;10.586;2023-05-07T10:55:44;19.60;45.20
38183;DHT22;23991;52.430;10.586;2023-05-07T11:00:48;19.70;44.70
38183;DHT22;23991;52.430;10.586;2023-05-07T11:03:14;19.60;45.10
38183;DHT22;23991;52.430;10.586;2023-05-07T11:05:41;19.70;45.60
38183;DHT22;23991;52.430;10.586;2023-05-07T11:08:07;19.80;45.50
38183;DHT22;23991;52.430;10.586;2023-05-07T11:10:52;20.30;44.30
38183;DHT22;23991;52.430;10.586;2023-05-07T11:13:19;20.30;44.30
38183;DHT22;23991;52.430;10.586;2023-05-07T11:16:05;20.30;43.70
38183;DHT22;23991;52.430;10.586;2023-05-07T11:18:51;20.20;44.50
38183;DHT22;23991;52.430;10.586;2023-05-07T11:24:09;20.30;44.70
38183;DHT22;23991;52.430;10.586;2023-05-07T11:26:48;20.30;44.80
38183;DHT22;23991;52.430;10.586;2023-05-07T11:29:19;20.30;43.80
38183;DHT22;23991;52.430;10.586;2023-05-07T11:31:49;20.20;44.30
38183;DHT22;23991;52.430;10.586;2023-05-07T11:34:24;19.90;44.70
38183;DHT22;23991;52.430;10.586;2023-05-07T11:36:50;19.80;44.90
38183;DHT22;23991;52.430;10.586;2023-05-07T11:39:30;19.60;45.40
38183;DHT22;23991;52.430;10.586;2023-05-07T11:41:57;19.50;45.40
38183;DHT22;23991;52.430;10.586;2023-05-07T11:44:22;19.40;45.60
38183;DHT22;23991;52.430;10.586;2023-05-07T11:46:48;19.40;45.90
38183;DHT22;23991;52.430;10.586;2023-05-07T11:49:14;19.70;45.50
38183;DHT22;23991;52.430;10.586;2023-05-07T11:51:41;20.00;45.30
38183;DHT22;23991;52.430;10.586;2023-05-07T11:54:08;20.00;45.00
38183;DHT22;23991;52.430;10.586;2023-05-07T11:56:34;19.80;45.00
38183;DHT22;23991;52.430;10.586;2023-05-07T11:59:00;19.80;45.00
38183;DHT22;23991;52.430;10.586;2023-05-07T12:01:26;19.60;45.30
38183;DHT22;23991;52.430;10.586;2023-05-07T12:03:52;19.60;45.90
38183;DHT22;23991;52.430;10.586;2023-05-07T12:06:18;19.80;45.70
38183;DHT22;23991;52.430;10.586;2023-05-07T12:08:45;19.80;45.30
38183;DHT22;23991;52.430;10.586;2023-05-07T12:11:14;20.00;45.20
38183;DHT22;23991;52.430;10.586;2023-05-07T12:13:41;20.20;44.70
38183;DHT22;23991;52.430;10.586;2023-05-07T12:16:07;20.40;44.40
38183;DHT22;23991;52.430;10.586;2023-05-07T12:18:34;20.50;43.90
38183;DHT22;23991;52.430;10.586;2023-05-07T12:20:59;20.70;43.30
38183;DHT22;23991;52.430;10.586;2023-05-07T12:23:25;20.90;42.90
38183;DHT22;23991;52.430;10.586;2023-05-07T12:25:51;20.80;43.20
38183;DHT22;23991;52.430;10.586;2023-05-07T12:28:18;20.80;42.50
38183;DHT22;23991;52.430;10.586;2023-05-07T12:30:46;21.00;42.20
38183;DHT22;23991;52.430;10.586;2023-05-07T12:33:15;21.00;42.40
38183;DHT22;23991;52.430;10.586;2023-05-07T12:46:47;21.30;42.20
38183;DHT22;23991;52.430;10.586;2023-05-07T12:49:12;21.50;42.20
38183;DHT22;23991;52.430;10.586;2023-05-07T12:51:38;21.60;41.70
38183;DHT22;23991;52.430;10.586;2023-05-07T12:54:03;21.60;41.30
38183;DHT22;23991;52.430;10.586;2023-05-07T12:56:31;21.50;42.20
38183;DHT22;23991;52.430;10.586;2023-05-07T12:58:59;21.80;40.90
38183;DHT22;23991;52.430;10.586;2023-05-07T13:01:29;21.80;40.20
38183;DHT22;23991;52.430;10.586;2023-05-07T13:03:56;21.70;40.70
38183;DHT22;23991;52.430;10.586;2023-05-07T13:06:25;21.50;40.70
38183;DHT22;23991;52.430;10.586;2023-05-07T13:08:51;21.30;41.50
38183;DHT22;23991;52.430;10.586;2023-05-07T13:11:17;21.40;41.40
38183;DHT22;23991;52.430;10.586;2023-05-07T13:13:42;21.70;41.10
38183;DHT22;23991;52.430;10.586;2023-05-07T13:16:10;21.70;40.50
38183;DHT22;23991;52.430;10.586;2023-05-07T13:18:37;21.70;40.70
38183;DHT22;23991;52.430;10.586;2023-05-07T13:23:59;22.10;40.60
38183;DHT22;23991;52.430;10.586;2023-05-07T13:26:26;22.30;39.70
38183;DHT22;23991;52.430;10.586;2023-05-07T13:28:53;22.60;40.00
38183;DHT22;23991;52.430;10.586;2023-05-07T13:31:19;22.70;39.00
38183;DHT22;23991;52.430;10.586;2023-05-07T13:33:46;23.20;38.40
38183;DHT22;23991;52.430;10.586;2023-05-07T13:36:16;23.30;37.60
38183;DHT22;23991;52.430;10.586;2023-05-07T13:38:42;23.80;37.20
38183;DHT22;23991;52.430;10.586;2023-05-07T13:41:07;24.10;36.40
38183;DHT22;23991;52.430;10.586;2023-05-07T13:43:33;24.40;36.30
38183;DHT22;23991;52.430;10.586;2023-05-07T13:45:59;24.20;36.60
38183;DHT22;23991;52.430;10.586;2023-05-07T13:48:25;24.40;36.40
38183;DHT22;23991;52.430;10.586;2023-05-07T13:50:50;24.30;35.90
38183;DHT22;23991;52.430;10.586;2023-05-07T13:53:16;24.30;35.70
38183;DHT22;23991;52.430;10.586;2023-05-07T13:55:43;24.30;35.60
38183;DHT22;23991;52.430;10.586;2023-05-07T14:05:17;25.60;33.80
38183;DHT22;23991;52.430;10.586;2023-05-07T14:07:43;25.70;33.40
38183;DHT22;23991;52.430;10.586;2023-05-07T14:10:09;25.80;33.50
38183;DHT22;23991;52.430;10.586;2023-05-07T14:22:56;26.00;33.60
38183;DHT22;23991;52.430;10.586;2023-05-07T14:25:21;25.80;33.60
38183;DHT22;23991;52.430;10.586;2023-05-07T14:27:47;25.50;33.90
38183;DHT22;23991;52.430;10.586;2023-05-07T14:30:13;25.50;34.10
38183;DHT22;23991;52.430;10.586;2023-05-07T14:32:38;25.50;34.20
38183;DHT22;23991;52.430;10.586;2023-05-07T14:35:04;25.20;34.70
38183;DHT22;23991;52.430;10.586;2023-05-07T14:37:29;25.10;34.80
38183;DHT22;23991;52.430;10.586;2023-05-07T14:39:55;25.20;34.20
38183;DHT22;23991;52.430;10.586;2023-05-07T14:42:21;25.20;34.50
38183;DHT22;23991;52.430;10.586;2023-05-07T14:44:46;25.70;33.60
38183;DHT22;23991;52.430;10.586;2023-05-07T14:47:13;25.70;32.90
38183;DHT22;23991;52.430;10.586;2023-05-07T14:49:39;25.60;33.20
38183;DHT22;23991;52.430;10.586;2023-05-07T14:52:05;25.50;33.10
38183;DHT22;23991;52.430;10.586;2023-05-07T14:54:33;25.30;33.10
38183;DHT22;23991;52.430;10.586;2023-05-07T14:57:01;25.30;33.30
38183;DHT22;23991;52.430;10.586;2023-05-07T14:59:27;25.20;33.80
38183;DHT22;23991;52.430;10.586;2023-05-07T15:01:52;25.10;34.00
38183;DHT22;23991;52.430;10.586;2023-05-07T15:04:18;25.00;34.40
38183;DHT22;23991;52.430;10.586;2023-05-07T15:06:44;25.10;33.80
38183;DHT22;23991;52.430;10.586;2023-05-07T15:09:09;25.10;34.20
38183;DHT22;23991;52.430;10.586;2023-05-07T15:11:35;25.30;33.90
38183;DHT22;23991;52.430;10.586;2023-05-07T15:14:00;25.80;33.40
38183;DHT22;23991;52.430;10.586;2023-05-07T15:16:26;25.80;33.60
38183;DHT22;23991;52.430;10.586;2023-05-07T15:18:52;25.80;33.20
38183;DHT22;23991;52.430;10.586;2023-05-07T15:21:17;25.80;33.30
38183;DHT22;23991;52.430;10.586;2023-05-07T15:23:43;25.80;33.10
38183;DHT22;23991;52.430;10.586;2023-05-07T15:26:10;26.10;33.20
38183;DHT22;23991;52.430;10.586;2023-05-07T15:28:35;25.90;33.10
38183;DHT22;23991;52.430;10.586;2023-05-07T15:31:01;25.80;33.60
38183;DHT22;23991;52.430;10.586;2023-05-07T15:33:27;26.00;33.10
38183;DHT22;23991;52.430;10.586;2023-05-07T15:35:52;26.20;33.00
38183;DHT22;23991;52.430;10.586;2023-05-07T15:38:18;25.70;33.30
38183;DHT22;23991;52.430;10.586;2023-05-07T15:40:43;25.30;33.60
38183;DHT22;23991;52.430;10.586;2023-05-07T15:43:10;25.40;33.40
38183;DHT22;23991;52.430;10.586;2023-05-07T15:45:42;25.40;33.60
38183;DHT22;23991;52.430;10.586;2023-05-07T15:48:08;25.20;33.70
38183;DHT22;23991;52.430;10.586;2023-05-07T15:50:34;25.10;34.10
38183;DHT22;23991;52.430;10.586;2023-05-07T15:53:00;25.00;34.30